עמוד ראשי
METAR-TAF:

METAR-TAF

שדות תעופה :

Buckland, אלסקה, ארצות הברית

קו רוחב: 65-58-56N, קו אורך: 161-09-07W, גובה: 7מטר

תצפית מזג אוויר נוכחית

הדו"ח נערך לפני 53דקות, בשעה 15:56 UTC
רוח רגועה
טמפרטורת 4 צלסיוס
לחות 93%
לחץ 1015 hPa
ראות: 16.1קילומטר
עננים בינוניים בגובה 6500רגל

METAR: PABL 191556Z AUTO 00000KT 10SM BKN065 04/03 A2997 RMK AO2 SLP149 T00440028

זמן: 08:49 (16:49 UTC)


TAF: חסר

תצפיות ותחזיות מזג אוויר לגבי יותר מ- 4,000 שדות תעופה ברחבי העולם. דוחות METAR ו- TAF.

התחנות הזמינות מסומנות בנקודות צהובות ואדומות על גבי המפה.

העבר את העכבר לנקודה הצבעונית על מנת לראות את שם התחנה.

לאחר מכן, לחץ כדי לראות את תוכן ואת תחזיות מזג האוויר.

כדי לשנות את המפה: לחץ על הכפתורים הירוקים עם הפלוס השחור כדי להתקרב; על הכפתור הירוק עם המקף כדי להתרחק; או בחיצים הירוקים למפות סמוכות.


METAR-TAF: